createdAt,value
2022-08-27T00:02:10.217Z,96.50
2022-08-27T00:04:39.243Z,96.90
2022-08-27T00:07:07.929Z,97.20
2022-08-27T00:09:36.549Z,97.10
2022-08-27T00:12:06.138Z,96.90
2022-08-27T00:14:34.264Z,96.40
2022-08-27T00:17:02.366Z,96.20
2022-08-27T00:19:32.136Z,96.00
2022-08-27T00:22:00.302Z,95.70
2022-08-27T00:24:28.495Z,95.70
2022-08-27T00:26:56.733Z,95.70
2022-08-27T00:29:26.416Z,95.60
2022-08-27T00:31:59.835Z,95.40
2022-08-27T00:34:28.550Z,95.20
2022-08-27T00:36:58.204Z,95.10
2022-08-27T00:39:26.233Z,95.00
2022-08-27T00:41:54.512Z,95.00
2022-08-27T00:44:22.575Z,95.40
2022-08-27T00:46:53.981Z,96.40
2022-08-27T00:49:27.090Z,96.80
2022-08-27T00:52:01.403Z,96.60
2022-08-27T00:54:30.009Z,97.00
2022-08-27T00:56:59.698Z,96.30
2022-08-27T00:59:31.172Z,95.80
2022-08-27T01:02:17.131Z,96.20
2022-08-27T01:04:47.996Z,96.90
2022-08-27T01:07:18.363Z,97.40
2022-08-27T01:09:48.621Z,97.70
2022-08-27T01:12:19.674Z,98.60
2022-08-27T01:14:47.906Z,99.40
2022-08-27T01:17:17.161Z,99.70
2022-08-27T01:19:49.009Z,99.90
2022-08-27T01:22:29.921Z,99.90
2022-08-27T01:25:02.229Z,99.90
2022-08-27T01:27:32.492Z,99.90
2022-08-27T01:30:00.565Z,99.60
2022-08-27T01:32:30.936Z,99.40
2022-08-27T01:35:00.369Z,99.20
2022-08-27T01:37:29.781Z,99.00
2022-08-27T01:40:00.331Z,99.40
2022-08-27T01:42:32.824Z,99.20
2022-08-27T01:45:05.774Z,99.50
2022-08-27T01:47:34.716Z,99.70
2022-08-27T01:50:03.769Z,99.90
2022-08-27T01:52:32.659Z,99.90
2022-08-27T01:55:02.652Z,99.90
2022-08-27T01:57:32.488Z,99.90
2022-08-27T02:00:00.739Z,99.90
2022-08-27T02:02:28.854Z,99.90
2022-08-27T02:04:57.117Z,99.60
2022-08-27T02:07:25.188Z,99.80
2022-08-27T02:09:53.570Z,99.80
2022-08-27T02:12:23.212Z,99.80
2022-08-27T02:14:51.842Z,99.50
2022-08-27T02:17:19.917Z,99.90
2022-08-27T02:19:48.205Z,99.90
2022-08-27T02:22:17.028Z,99.90
2022-08-27T02:24:47.221Z,99.90
2022-08-27T02:27:15.288Z,99.90
2022-08-27T02:29:44.793Z,99.90
2022-08-27T02:32:17.776Z,99.90
2022-08-27T02:35:01.239Z,99.90
2022-08-27T02:37:29.604Z,99.90
2022-08-27T02:39:58.228Z,99.90
2022-08-27T02:42:26.535Z,99.90
2022-08-27T02:44:56.140Z,99.90
2022-08-27T02:47:24.327Z,99.90
2022-08-27T02:49:52.449Z,99.90
2022-08-27T02:52:25.016Z,99.90
2022-08-27T02:54:54.034Z,99.90
2022-08-27T02:57:22.406Z,99.90
2022-08-27T02:59:50.587Z,99.90
2022-08-27T03:02:21.061Z,99.90
2022-08-27T03:04:49.622Z,99.90
2022-08-27T03:07:20.125Z,99.90
2022-08-27T03:09:48.317Z,99.90
2022-08-27T03:12:17.063Z,99.90
2022-08-27T03:14:45.994Z,99.90
2022-08-27T03:17:31.944Z,99.90
2022-08-27T03:20:02.180Z,99.90
2022-08-27T03:22:30.290Z,99.90
2022-08-27T03:24:58.355Z,99.90
2022-08-27T03:27:26.529Z,99.90
2022-08-27T03:29:54.669Z,99.90
2022-08-27T03:32:22.830Z,99.90
2022-08-27T03:34:50.944Z,99.90
2022-08-27T03:37:20.438Z,99.90
2022-08-27T03:39:48.456Z,99.90
2022-08-27T03:42:16.605Z,99.90
2022-08-27T03:44:45.018Z,99.90
2022-08-27T03:47:13.133Z,99.90
2022-08-27T03:49:41.291Z,99.90
2022-08-27T03:52:10.664Z,99.90
2022-08-27T03:54:40.128Z,99.90
2022-08-27T03:57:08.472Z,99.90
2022-08-27T03:59:36.598Z,99.90
2022-08-27T04:02:05.467Z,99.90
2022-08-27T04:04:33.657Z,99.90
2022-08-27T04:07:01.814Z,99.90
2022-08-27T04:09:30.395Z,99.90
2022-08-27T04:11:59.880Z,99.90
2022-08-27T04:14:28.181Z,99.90
2022-08-27T04:16:57.265Z,99.90
2022-08-27T04:19:27.953Z,99.90
2022-08-27T04:22:02.616Z,99.90
2022-08-27T04:24:32.434Z,99.90
2022-08-27T04:27:03.108Z,99.90
2022-08-27T04:29:31.846Z,99.90
2022-08-27T04:32:01.088Z,99.90
2022-08-27T04:34:29.496Z,99.90
2022-08-27T04:36:58.735Z,99.90
2022-08-27T04:39:28.577Z,99.90
2022-08-27T04:41:59.451Z,99.90
2022-08-27T04:44:31.544Z,99.90
2022-08-27T04:47:02.461Z,99.90
2022-08-27T04:49:31.243Z,99.90
2022-08-27T04:52:01.438Z,99.90
2022-08-27T04:54:32.220Z,99.90
2022-08-27T04:57:00.973Z,99.90
2022-08-27T04:59:30.493Z,99.90
2022-08-27T05:01:58.720Z,99.90
2022-08-27T05:04:26.892Z,99.90
2022-08-27T05:06:55.034Z,99.90
2022-08-27T05:09:24.540Z,99.90
2022-08-27T05:11:55.512Z,99.90
2022-08-27T05:14:24.199Z,99.90
2022-08-27T05:16:53.658Z,99.90
2022-08-27T05:19:21.812Z,99.90
2022-08-27T05:21:52.673Z,99.90
2022-08-27T05:24:21.534Z,99.90
2022-08-27T05:26:50.552Z,99.90
2022-08-27T05:29:19.044Z,99.90
2022-08-27T05:31:48.400Z,99.90
2022-08-27T05:34:25.705Z,99.90
2022-08-27T05:36:54.867Z,99.90
2022-08-27T05:39:22.926Z,99.90
2022-08-27T05:41:52.535Z,99.90
2022-08-27T05:47:08.771Z,99.90
2022-08-27T05:49:38.816Z,99.90
2022-08-27T05:52:10.835Z,99.90
2022-08-27T05:54:40.663Z,99.90
2022-08-27T05:57:08.813Z,99.90
2022-08-27T05:59:54.938Z,99.90
2022-08-27T06:02:23.312Z,99.90
2022-08-27T06:04:53.555Z,99.90
2022-08-27T06:07:22.097Z,99.90
2022-08-27T06:09:50.198Z,99.90
2022-08-27T06:12:18.298Z,99.90
2022-08-27T06:14:46.356Z,99.90
2022-08-27T06:17:14.473Z,99.90
2022-08-27T06:19:42.808Z,99.90
2022-08-27T06:22:12.660Z,99.90
2022-08-27T06:24:41.887Z,99.90
2022-08-27T06:27:11.703Z,99.90
2022-08-27T06:29:40.447Z,99.90
2022-08-27T06:32:09.618Z,99.90
2022-08-27T06:34:38.599Z,99.90
2022-08-27T06:37:06.987Z,99.90
2022-08-27T06:39:37.517Z,99.90
2022-08-27T06:42:06.421Z,99.90
2022-08-27T06:44:35.234Z,99.90
2022-08-27T06:47:04.658Z,99.90
2022-08-27T06:49:33.612Z,99.90
2022-08-27T06:52:01.792Z,99.90
2022-08-27T06:54:29.916Z,99.90
2022-08-27T06:57:01.452Z,99.90
2022-08-27T06:59:32.004Z,99.90
2022-08-27T07:02:00.352Z,99.90
2022-08-27T07:04:32.620Z,99.90
2022-08-27T07:07:02.109Z,99.90
2022-08-27T07:09:32.124Z,99.90
2022-08-27T07:12:02.428Z,99.90
2022-08-27T07:14:36.962Z,99.70
2022-08-27T07:17:10.949Z,99.50
2022-08-27T07:19:44.546Z,99.30
2022-08-27T07:22:13.001Z,99.30
2022-08-27T07:24:41.493Z,98.90
2022-08-27T07:27:12.975Z,98.60
2022-08-27T07:29:41.570Z,98.30
2022-08-27T07:32:09.834Z,98.50
2022-08-27T07:34:37.926Z,98.20
2022-08-27T07:37:06.261Z,98.00
2022-08-27T07:39:34.431Z,97.70
2022-08-27T07:42:20.253Z,97.50
2022-08-27T07:44:49.982Z,97.60
2022-08-27T07:47:18.568Z,97.30
2022-08-27T07:49:46.783Z,97.50
2022-08-27T07:52:17.368Z,97.20
2022-08-27T07:54:45.640Z,97.40
2022-08-27T07:57:14.517Z,96.80
2022-08-27T07:59:42.665Z,96.70
2022-08-27T08:02:12.851Z,96.10
2022-08-27T08:04:40.928Z,95.40
2022-08-27T08:07:11.443Z,95.10
2022-08-27T08:09:39.721Z,94.80
2022-08-27T08:12:08.309Z,94.70
2022-08-27T08:14:37.460Z,94.40
2022-08-27T08:17:10.481Z,94.70
2022-08-27T08:19:40.540Z,94.40
2022-08-27T08:22:08.766Z,93.90
2022-08-27T08:24:37.243Z,93.80
2022-08-27T08:27:07.627Z,93.80
2022-08-27T08:29:37.554Z,93.40
2022-08-27T08:32:06.171Z,93.40
2022-08-27T08:34:35.744Z,93.20
2022-08-27T08:37:06.145Z,92.80
2022-08-27T08:39:34.331Z,92.20
2022-08-27T08:42:05.253Z,92.30
2022-08-27T08:44:37.562Z,92.10
2022-08-27T08:47:11.598Z,91.70
2022-08-27T08:49:50.747Z,91.20
2022-08-27T08:52:42.039Z,91.20
2022-08-27T08:55:30.125Z,91.40
2022-08-27T08:58:10.596Z,91.30
2022-08-27T09:00:40.577Z,90.70
2022-08-27T09:03:09.635Z,90.60
2022-08-27T09:05:41.333Z,90.80
2022-08-27T09:08:36.433Z,90.10
2022-08-27T09:11:11.888Z,90.40
2022-08-27T09:13:43.773Z,90.60
2022-08-27T09:16:12.309Z,90.10
2022-08-27T09:18:42.265Z,90.10
2022-08-27T09:21:27.928Z,90.60
2022-08-27T09:24:07.433Z,90.40
2022-08-27T09:26:39.290Z,90.30
2022-08-27T09:29:20.227Z,89.20
2022-08-27T09:31:56.810Z,88.30
2022-08-27T09:34:26.430Z,89.50
2022-08-27T09:37:01.244Z,89.60
2022-08-27T09:39:45.684Z,88.50
2022-08-27T09:42:27.011Z,88.50
2022-08-27T09:44:55.704Z,87.10
2022-08-27T09:47:24.777Z,86.60
2022-08-27T09:50:07.349Z,86.20
2022-08-27T09:52:38.667Z,86.30
2022-08-27T09:55:08.792Z,86.30
2022-08-27T09:57:41.430Z,86.80
2022-08-27T10:00:16.187Z,85.60
2022-08-27T10:02:52.787Z,84.20
2022-08-27T10:05:29.129Z,82.70
2022-08-27T10:08:01.950Z,83.80
2022-08-27T10:10:40.807Z,80.50
2022-08-27T10:13:13.791Z,77.90
2022-08-27T10:15:57.513Z,77.90
2022-08-27T10:18:32.314Z,77.30
2022-08-27T10:21:08.180Z,77.60
2022-08-27T10:23:46.500Z,77.10
2022-08-27T10:26:20.758Z,77.20
2022-08-27T10:29:01.323Z,77.60
2022-08-27T10:31:40.148Z,77.90
2022-08-27T10:34:32.431Z,76.50
2022-08-27T10:37:12.056Z,75.40
2022-08-27T10:39:50.944Z,77.30
2022-08-27T10:42:27.392Z,79.30
2022-08-27T10:45:30.574Z,79.90
2022-08-27T10:48:07.419Z,80.90
2022-08-27T10:50:43.028Z,82.10
2022-08-27T10:53:17.385Z,81.60
2022-08-27T10:55:51.761Z,81.40
2022-08-27T10:58:46.857Z,82.20
2022-08-27T11:01:22.065Z,82.10
2022-08-27T11:03:55.925Z,81.90
2022-08-27T11:06:28.912Z,81.80
2022-08-27T11:09:01.084Z,82.20
2022-08-27T11:12:12.878Z,81.90
2022-08-27T11:14:37.575Z,82.30
2022-08-27T11:17:10.058Z,82.70
2022-08-27T11:19:48.390Z,83.20
2022-08-27T11:22:25.941Z,83.60
2022-08-27T11:25:01.091Z,84.10
2022-08-27T11:27:33.459Z,84.80
2022-08-27T11:30:07.644Z,85.50
2022-08-27T11:32:45.937Z,86.40
2022-08-27T11:35:22.593Z,88.10
2022-08-27T11:38:24.353Z,88.80
2022-08-27T11:41:07.246Z,90.20
2022-08-27T11:43:38.523Z,90.70
2022-08-27T11:46:09.908Z,91.30
2022-08-27T11:48:42.037Z,91.70
2022-08-27T11:51:14.456Z,92.40
2022-08-27T11:53:57.340Z,93.00
2022-08-27T11:56:40.555Z,93.60
2022-08-27T11:59:23.357Z,94.20
2022-08-27T12:01:54.248Z,94.70
2022-08-27T12:04:33.592Z,95.00
2022-08-27T12:07:06.156Z,95.50
2022-08-27T12:09:55.214Z,96.50
2022-08-27T12:12:31.043Z,96.70
2022-08-27T12:15:06.194Z,97.90
2022-08-27T12:17:46.518Z,98.50
2022-08-27T12:20:24.843Z,98.50
2022-08-27T12:23:24.474Z,98.40
2022-08-27T12:26:00.805Z,99.10
2022-08-27T12:28:29.515Z,99.90
2022-08-27T12:30:58.743Z,99.90
2022-08-27T12:33:34.527Z,99.90
2022-08-27T12:36:11.840Z,99.90
2022-08-27T12:38:50.579Z,99.90
2022-08-27T12:41:27.680Z,99.90
2022-08-27T12:44:06.473Z,99.90
2022-08-27T12:46:47.094Z,99.90
2022-08-27T12:49:38.994Z,99.90
2022-08-27T12:52:26.569Z,99.90
2022-08-27T12:55:06.904Z,99.90
2022-08-27T12:57:43.121Z,99.90
2022-08-27T13:00:18.902Z,99.90
2022-08-27T13:03:12.379Z,99.90
2022-08-27T13:05:44.812Z,99.90
2022-08-27T13:08:24.466Z,99.90
2022-08-27T13:10:52.645Z,99.90
2022-08-27T13:13:22.523Z,99.90
2022-08-27T13:15:54.815Z,99.90
2022-08-27T13:18:24.100Z,99.90
2022-08-27T13:21:16.133Z,99.90
2022-08-27T13:23:47.090Z,99.90
2022-08-27T13:26:15.248Z,99.90
2022-08-27T13:28:44.586Z,99.90
2022-08-27T13:31:13.059Z,99.90
2022-08-27T13:33:42.298Z,99.90
2022-08-27T13:36:12.382Z,99.90
2022-08-27T13:38:47.842Z,99.90
2022-08-27T13:41:24.633Z,99.90
2022-08-27T13:43:58.520Z,99.90
2022-08-27T13:46:31.588Z,99.90
2022-08-27T13:49:01.140Z,99.90
2022-08-27T13:51:33.678Z,99.90
2022-08-27T13:54:15.729Z,99.90
2022-08-27T13:57:03.581Z,99.90
2022-08-27T13:59:33.044Z,99.90
2022-08-27T14:02:04.589Z,99.50
2022-08-27T14:04:39.458Z,99.00
2022-08-27T14:07:13.773Z,97.80
2022-08-27T14:09:54.601Z,98.00
2022-08-27T14:12:32.799Z,97.60
2022-08-27T14:15:13.419Z,97.20
2022-08-27T14:17:41.527Z,97.50
2022-08-27T14:20:10.583Z,97.40
2022-08-27T14:22:39.997Z,97.10
2022-08-27T14:25:09.280Z,97.30
2022-08-27T14:27:37.950Z,96.60
2022-08-27T14:30:08.078Z,96.90
2022-08-27T14:32:37.003Z,97.00
2022-08-27T14:35:05.371Z,97.30
2022-08-27T14:37:33.474Z,97.40
2022-08-27T14:40:03.150Z,97.40
2022-08-27T14:42:34.266Z,97.50
2022-08-27T14:45:02.432Z,97.60
2022-08-27T14:47:33.793Z,97.80
2022-08-27T14:50:02.939Z,97.60
2022-08-27T14:52:31.130Z,97.60
2022-08-27T14:54:59.268Z,97.40
2022-08-27T14:57:28.854Z,97.40
2022-08-27T14:59:57.024Z,97.50
2022-08-27T15:02:25.426Z,97.60
2022-08-27T15:04:53.567Z,97.80
2022-08-27T15:07:23.468Z,97.80
2022-08-27T15:09:51.733Z,97.70
2022-08-27T15:12:26.456Z,97.60
2022-08-27T15:14:56.729Z,97.60
2022-08-27T15:17:34.601Z,97.80
2022-08-27T15:20:04.999Z,97.90
2022-08-27T15:22:34.844Z,98.00
2022-08-27T15:25:05.141Z,98.20
2022-08-27T15:27:38.457Z,98.30
2022-08-27T15:30:11.507Z,98.20
2022-08-27T15:32:42.586Z,98.30
2022-08-27T15:35:14.036Z,98.30
2022-08-27T15:37:43.185Z,98.30
2022-08-27T15:40:13.033Z,98.40
2022-08-27T15:42:41.719Z,98.60
2022-08-27T15:45:13.015Z,98.70
2022-08-27T15:47:41.226Z,99.00
2022-08-27T15:50:10.015Z,98.90
2022-08-27T15:52:41.091Z,98.90
2022-08-27T15:55:16.438Z,98.90
2022-08-27T15:57:44.543Z,98.90
2022-08-27T16:00:16.532Z,98.70
2022-08-27T16:02:45.732Z,98.60
2022-08-27T16:05:15.972Z,98.60
2022-08-27T16:07:44.611Z,98.70
2022-08-27T16:10:13.820Z,98.90
2022-08-27T16:12:42.030Z,99.10
2022-08-27T16:15:10.686Z,99.20
2022-08-27T16:17:40.443Z,99.30
2022-08-27T16:20:10.468Z,99.30
2022-08-27T16:22:39.150Z,99.30
2022-08-27T16:25:08.551Z,99.30
2022-08-27T16:27:37.579Z,99.40
2022-08-27T16:30:08.190Z,99.30
2022-08-27T16:32:36.353Z,99.30
2022-08-27T16:35:06.874Z,99.40
2022-08-27T16:37:35.628Z,99.50
2022-08-27T16:40:04.360Z,99.60
2022-08-27T16:42:34.195Z,99.50
2022-08-27T16:45:03.477Z,99.50
2022-08-27T16:47:31.624Z,99.50
2022-08-27T16:50:24.207Z,99.50
2022-08-27T16:52:56.179Z,99.30
2022-08-27T16:55:24.321Z,99.30
2022-08-27T16:57:52.465Z,99.20
2022-08-27T17:00:20.809Z,99.00
2022-08-27T17:02:48.985Z,99.10
2022-08-27T17:05:33.394Z,99.10
2022-08-27T17:08:05.571Z,99.30
2022-08-27T17:10:43.384Z,99.30
2022-08-27T17:13:11.530Z,99.50
2022-08-27T17:15:39.958Z,99.50
2022-08-27T17:18:08.833Z,99.40
2022-08-27T17:20:37.452Z,99.40
2022-08-27T17:23:07.761Z,99.50
2022-08-27T17:25:35.821Z,99.50
2022-08-27T17:28:04.323Z,99.40
2022-08-27T17:30:32.516Z,99.40
2022-08-27T17:33:00.681Z,99.50
2022-08-27T17:35:28.916Z,99.50
2022-08-27T17:37:57.016Z,99.80
2022-08-27T17:40:26.931Z,99.90
2022-08-27T17:42:55.613Z,99.90
2022-08-27T17:45:23.621Z,99.90
2022-08-27T17:47:51.699Z,99.90
2022-08-27T17:50:19.822Z,99.90
2022-08-27T17:52:47.864Z,99.90
2022-08-27T17:55:15.964Z,99.90
2022-08-27T17:57:46.404Z,99.90
2022-08-27T18:00:15.534Z,99.90
2022-08-27T18:02:46.659Z,99.90
2022-08-27T18:05:15.873Z,99.90
2022-08-27T18:07:44.983Z,99.90
2022-08-27T18:10:15.068Z,99.90
2022-08-27T18:12:45.864Z,99.90
2022-08-27T18:15:19.546Z,99.90
2022-08-27T18:17:49.001Z,99.90
2022-08-27T18:20:23.782Z,99.90
2022-08-27T18:22:53.481Z,99.90
2022-08-27T18:25:24.716Z,99.90
2022-08-27T18:27:56.965Z,99.90
2022-08-27T18:30:26.083Z,99.90
2022-08-27T18:32:54.477Z,99.90
2022-08-27T18:35:25.572Z,99.90
2022-08-27T18:37:54.071Z,99.90
2022-08-27T18:40:26.526Z,99.90
2022-08-27T18:42:56.343Z,99.90
2022-08-27T18:45:28.608Z,99.90
2022-08-27T18:47:59.652Z,99.90
2022-08-27T18:50:28.626Z,99.90
2022-08-27T18:52:58.147Z,99.90
2022-08-27T18:55:28.646Z,99.90
2022-08-27T18:57:58.069Z,99.90
2022-08-27T19:00:26.265Z,99.90
2022-08-27T19:02:54.494Z,99.90
2022-08-27T19:05:26.644Z,99.90
2022-08-27T19:07:55.358Z,99.90
2022-08-27T19:10:23.465Z,99.90
2022-08-27T19:12:51.543Z,99.90
2022-08-27T19:15:21.328Z,99.90
2022-08-27T19:17:52.846Z,99.90
2022-08-27T19:20:21.287Z,99.90
2022-08-27T19:22:49.753Z,99.90
2022-08-27T19:25:18.821Z,99.90
2022-08-27T19:27:47.785Z,99.90
2022-08-27T19:30:18.008Z,99.90
2022-08-27T19:32:47.549Z,99.90
2022-08-27T19:35:24.568Z,99.90
2022-08-27T19:37:53.550Z,99.90
2022-08-27T19:40:22.939Z,99.90
2022-08-27T19:42:53.719Z,99.90
2022-08-27T19:45:23.225Z,99.90
2022-08-27T19:47:54.291Z,99.90
2022-08-27T19:50:23.927Z,99.90
2022-08-27T19:52:53.436Z,99.90
2022-08-27T19:55:22.060Z,99.90
2022-08-27T19:57:50.204Z,99.90
2022-08-27T20:00:21.821Z,99.90
2022-08-27T20:02:50.755Z,99.90
2022-08-27T20:05:21.613Z,99.90
2022-08-27T20:07:51.081Z,99.90
2022-08-27T20:10:20.092Z,99.90
2022-08-27T20:12:50.007Z,99.90
2022-08-27T20:15:19.470Z,99.90
2022-08-27T20:17:48.002Z,99.90
2022-08-27T20:20:24.897Z,99.90
2022-08-27T20:22:55.179Z,99.90
2022-08-27T20:25:25.098Z,99.90
2022-08-27T20:27:53.757Z,99.90
2022-08-27T20:30:23.882Z,99.90
2022-08-27T20:32:52.065Z,99.90
2022-08-27T20:35:22.558Z,99.90
2022-08-27T20:37:50.862Z,99.90
2022-08-27T20:40:24.580Z,99.90
2022-08-27T20:42:52.986Z,99.90
2022-08-27T20:45:21.319Z,99.90
2022-08-27T20:47:50.825Z,99.90
2022-08-27T20:50:21.778Z,99.90
2022-08-27T20:52:51.544Z,99.90
2022-08-27T20:55:20.472Z,99.90
2022-08-27T20:58:07.033Z,99.90
2022-08-27T21:00:36.831Z,99.90
2022-08-27T21:03:05.189Z,99.90
2022-08-27T21:05:36.436Z,99.90
2022-08-27T21:08:07.010Z,99.90
2022-08-27T21:10:36.011Z,99.90
2022-08-27T21:13:05.716Z,99.90
2022-08-27T21:15:34.723Z,99.90
2022-08-27T21:18:02.940Z,99.90
2022-08-27T21:20:32.212Z,99.90
2022-08-27T21:23:01.998Z,99.90
2022-08-27T21:25:30.465Z,99.90
2022-08-27T21:28:00.379Z,99.90
2022-08-27T21:30:29.066Z,99.90
2022-08-27T21:32:57.599Z,99.90
2022-08-27T21:35:27.603Z,99.90
2022-08-27T21:37:55.812Z,99.90
2022-08-27T21:40:26.438Z,99.90
2022-08-27T21:42:55.154Z,99.90
2022-08-27T21:45:23.745Z,99.90
2022-08-27T21:47:52.598Z,99.90
2022-08-27T21:50:22.636Z,99.90
2022-08-27T21:52:51.324Z,99.90
2022-08-27T21:55:19.884Z,99.90
2022-08-27T21:57:49.326Z,99.90
2022-08-27T22:00:39.022Z,99.90
2022-08-27T22:03:10.301Z,99.90
2022-08-27T22:05:40.364Z,99.90
2022-08-27T22:08:09.853Z,99.90
2022-08-27T22:10:39.192Z,99.90
2022-08-27T22:13:09.279Z,99.90
2022-08-27T22:15:38.009Z,99.90
2022-08-27T22:18:06.880Z,99.90
2022-08-27T22:20:35.617Z,99.90
2022-08-27T22:23:06.188Z,99.90
2022-08-27T22:25:34.334Z,99.90
2022-08-27T22:28:02.719Z,99.90
2022-08-27T22:30:32.589Z,99.90
2022-08-27T22:33:00.718Z,99.90
2022-08-27T22:35:29.063Z,99.90
2022-08-27T22:37:57.251Z,99.90
2022-08-27T22:40:28.691Z,99.90
2022-08-27T22:42:57.079Z,99.90
2022-08-27T22:45:26.037Z,99.90
2022-08-27T22:47:55.912Z,99.90
2022-08-27T22:50:24.586Z,99.90
2022-08-27T22:52:52.697Z,99.90
2022-08-27T22:55:22.318Z,99.90
2022-08-27T22:57:52.113Z,99.90
2022-08-27T23:00:23.269Z,99.90
2022-08-27T23:02:51.369Z,99.90
2022-08-27T23:05:21.987Z,99.90
2022-08-27T23:07:50.207Z,99.90
2022-08-27T23:10:20.463Z,99.90
2022-08-27T23:12:49.093Z,99.90
2022-08-27T23:15:19.444Z,99.90
2022-08-27T23:17:47.580Z,99.90
2022-08-27T23:20:16.903Z,99.90
2022-08-27T23:22:46.526Z,99.90
2022-08-27T23:25:32.096Z,99.90
2022-08-27T23:28:01.988Z,99.90
2022-08-27T23:30:33.589Z,99.90
2022-08-27T23:33:01.682Z,99.90
2022-08-27T23:35:30.177Z,99.90
2022-08-27T23:37:59.721Z,99.90
2022-08-27T23:40:27.864Z,99.90
2022-08-27T23:42:56.087Z,99.90
2022-08-27T23:45:26.204Z,99.90
2022-08-27T23:47:54.491Z,99.90
2022-08-27T23:50:31.566Z,99.90
2022-08-27T23:53:04.003Z,99.90
2022-08-27T23:55:33.204Z,99.90
2022-08-27T23:58:01.470Z,99.90
